Time;durP1;ratioP1;P1;durP2;ratioP2;P2;SDS_P1;SDS_P2;PMS_P1;PMS_P2;Temp;Humidity;BMP_temperature;BMP_pressure;BME280_temperature;BME280_humidity;BME280_pressure;Samples;Min_cycle;Max_cycle;Signal;HPM_P1;HPM_P2
2022/12/23 00:02:02;;;;;;;0.68;0.50;;;;;;;;;;4565661;27;20044;-56
2022/12/23 00:04:12;;;;;;;0.40;0.40;;;;;;;;;;4565144;27;20485;-56
2022/12/23 00:06:22;;;;;;;0.60;0.60;;;;;;;;;;4566717;27;20032;-57
2022/12/23 00:08:33;;;;;;;0.60;0.50;;;;;;;;;;4566552;27;20020;-57
2022/12/23 00:10:43;;;;;;;0.50;0.50;;;;;;;;;;4566127;27;20859;-56
2022/12/23 00:15:23;;;;;;;0.47;0.47;;;;;;;;;;4566476;27;20087;-56
2022/12/23 00:17:34;;;;;;;0.65;0.60;;;;;;;;;;4567535;27;20456;-57
2022/12/23 00:19:44;;;;;;;0.43;0.40;;;;;;;;;;4564823;27;20991;-57
2022/12/23 00:21:54;;;;;;;0.65;0.50;;;;;;;;;;4565439;27;20066;-57
2022/12/23 00:24:05;;;;;;;0.35;0.32;;;;;;;;;;4566336;27;20044;-57
2022/12/23 00:26:20;;;;;;;0.95;0.50;;;;;;;;;;4564959;27;20032;-57
2022/12/23 00:28:30;;;;;;;0.60;0.52;;;;;;;;;;4564034;27;20176;-57
2022/12/23 00:30:54;;;;;;;0.60;0.40;;;;;;;;;;4567240;27;20115;-56
2022/12/23 00:33:05;;;;;;;0.85;0.60;;;;;;;;;;4564024;27;20081;-57
2022/12/23 00:35:15;;;;;;;0.82;0.60;;;;;;;;;;4564945;27;20085;-57
2022/12/23 00:37:25;;;;;;;1.10;0.55;;;;;;;;;;4564466;27;20041;-57
2022/12/23 00:44:33;;;;;;;0.60;0.60;;;;;;;;;;4566041;27;20036;-57
2022/12/23 00:46:44;;;;;;;1.00;0.60;;;;;;;;;;4552448;27;20500;-57
2022/12/23 00:51:23;;;;;;;0.75;0.50;;;;;;;;;;4564519;27;20032;-57
2022/12/23 00:53:34;;;;;;;1.13;0.75;;;;;;;;;;4568582;27;20040;-57
2022/12/23 00:55:46;;;;;;;1.08;0.52;;;;;;;;;;4566088;27;20521;-57
2022/12/23 00:57:57;;;;;;;0.52;0.47;;;;;;;;;;4551722;27;20622;-57
2022/12/23 01:00:07;;;;;;;1.00;0.60;;;;;;;;;;4568267;27;20075;-57
2022/12/23 01:07:15;;;;;;;0.88;0.70;;;;;;;;;;4566484;27;20041;-57
2022/12/23 01:09:26;;;;;;;1.15;0.70;;;;;;;;;;4548849;28;20035;-57
2022/12/23 01:11:36;;;;;;;0.82;0.50;;;;;;;;;;4566781;27;20036;-56
2022/12/23 01:13:46;;;;;;;1.13;0.80;;;;;;;;;;4568614;27;20464;-57
2022/12/23 01:16:01;;;;;;;1.85;0.75;;;;;;;;;;4565690;27;20031;-57
2022/12/23 01:18:11;;;;;;;1.35;0.70;;;;;;;;;;4564962;27;20048;-56
2022/12/23 01:20:21;;;;;;;0.80;0.77;;;;;;;;;;4566117;27;20020;-57
2022/12/23 01:22:32;;;;;;;0.85;0.70;;;;;;;;;;4565572;27;20039;-57
2022/12/23 01:24:42;;;;;;;1.08;0.70;;;;;;;;;;4565281;27;20066;-57
2022/12/23 01:26:52;;;;;;;1.73;0.73;;;;;;;;;;4563801;27;20028;-56
2022/12/23 01:29:03;;;;;;;1.23;0.68;;;;;;;;;;4565073;27;20085;-57
2022/12/23 01:31:13;;;;;;;2.05;0.93;;;;;;;;;;4538823;28;20168;-57
2022/12/23 01:33:23;;;;;;;1.40;0.60;;;;;;;;;;4555606;27;20079;-57
2022/12/23 01:35:34;;;;;;;1.15;0.70;;;;;;;;;;4565517;27;20392;-56
2022/12/23 01:37:44;;;;;;;1.15;0.70;;;;;;;;;;4564230;27;20106;-56
2022/12/23 01:39:54;;;;;;;0.77;0.63;;;;;;;;;;4567407;27;20036;-56
2022/12/23 01:44:46;;;;;;;1.60;0.80;;;;;;;;;;4568604;27;20024;-56
2022/12/23 01:46:56;;;;;;;1.33;0.80;;;;;;;;;;4566970;27;20611;-56
2022/12/23 01:49:06;;;;;;;1.05;0.68;;;;;;;;;;4565722;27;20071;-56
2022/12/23 01:51:20;;;;;;;1.08;0.70;;;;;;;;;;4567259;27;20377;-56
2022/12/23 01:53:33;;;;;;;1.85;0.80;;;;;;;;;;4566728;27;20098;-56
2022/12/23 01:55:46;;;;;;;1.17;0.80;;;;;;;;;;4566225;27;20052;-56
2022/12/23 01:57:59;;;;;;;1.10;0.80;;;;;;;;;;4565429;27;20532;-56
2022/12/23 02:05:08;;;;;;;0.90;0.90;;;;;;;;;;4566697;27;21105;-56
2022/12/23 02:09:48;;;;;;;1.65;0.95;;;;;;;;;;4562387;27;20127;-56
2022/12/23 02:12:07;;;;;;;1.67;0.98;;;;;;;;;;4566311;27;20484;-56
2022/12/23 02:17:13;;;;;;;1.75;1.05;;;;;;;;;;4564794;27;20078;-56
2022/12/23 02:19:37;;;;;;;1.17;0.90;;;;;;;;;;4564622;27;20147;-56
2022/12/23 02:21:57;;;;;;;1.83;1.00;;;;;;;;;;4553379;28;20036;-56
2022/12/23 02:24:20;;;;;;;1.35;0.80;;;;;;;;;;4566073;27;20043;-56
2022/12/23 02:26:46;;;;;;;1.00;0.90;;;;;;;;;;4564253;27;20024;-56
2022/12/23 02:29:02;;;;;;;1.38;0.90;;;;;;;;;;4557300;27;20115;-56
2022/12/23 02:31:20;;;;;;;1.63;1.05;;;;;;;;;;4563663;27;21081;-56
2022/12/23 02:33:35;;;;;;;1.10;0.90;;;;;;;;;;4561759;27;20646;-56
2022/12/23 02:35:57;;;;;;;1.38;0.90;;;;;;;;;;4563867;27;20027;-56
2022/12/23 02:38:09;;;;;;;1.20;0.82;;;;;;;;;;4545833;27;20170;-55
2022/12/23 02:40:28;;;;;;;1.17;0.90;;;;;;;;;;4563789;27;20056;-56
2022/12/23 02:42:51;;;;;;;1.35;1.00;;;;;;;;;;4561443;27;20037;-56
2022/12/23 02:45:08;;;;;;;1.55;1.02;;;;;;;;;;4562342;27;20033;-56
2022/12/23 02:47:22;;;;;;;1.15;0.80;;;;;;;;;;4560113;27;20165;-55
2022/12/23 02:49:34;;;;;;;1.55;0.90;;;;;;;;;;4554326;28;20087;-56
2022/12/23 02:51:46;;;;;;;1.60;0.90;;;;;;;;;;4562717;27;20767;-56
2022/12/23 02:53:59;;;;;;;1.63;0.80;;;;;;;;;;4565879;27;20047;-55
2022/12/23 02:56:10;;;;;;;1.23;0.70;;;;;;;;;;4564619;27;20447;-56
2022/12/23 02:58:22;;;;;;;0.80;0.80;;;;;;;;;;4564781;27;20049;-56
2022/12/23 03:00:33;;;;;;;0.82;0.68;;;;;;;;;;4563030;27;20068;-56
2022/12/23 03:02:44;;;;;;;1.10;0.70;;;;;;;;;;4561712;27;20126;-56
2022/12/23 03:04:54;;;;;;;1.25;0.80;;;;;;;;;;4565165;27;20120;-56
2022/12/23 03:07:05;;;;;;;1.17;0.80;;;;;;;;;;4567207;27;20044;-56
2022/12/23 03:09:42;;;;;;;2.45;1.00;;;;;;;;;;4565509;27;20094;-56
2022/12/23 03:11:52;;;;;;;1.02;0.82;;;;;;;;;;4557589;27;20126;-56
2022/12/23 03:14:22;;;;;;;1.80;0.80;;;;;;;;;;4563566;27;20038;-55
2022/12/23 03:16:33;;;;;;;1.13;0.70;;;;;;;;;;4519390;27;20052;-56
2022/12/23 03:19:06;;;;;;;1.00;0.70;;;;;;;;;;4552503;28;20028;-56
2022/12/23 03:21:29;;;;;;;1.00;0.50;;;;;;;;;;4554650;27;20048;-56
2022/12/23 03:24:17;;;;;;;0.80;0.70;;;;;;;;;;4566278;27;20670;-56
2022/12/23 03:26:37;;;;;;;1.25;0.88;;;;;;;;;;4471965;28;20153;-56
2022/12/23 03:28:52;;;;;;;1.40;0.90;;;;;;;;;;4502914;27;20055;-56
2022/12/23 03:31:06;;;;;;;1.35;0.70;;;;;;;;;;4567120;27;20032;-56
2022/12/23 03:33:22;;;;;;;1.10;0.75;;;;;;;;;;4568071;27;20499;-56
2022/12/23 03:35:42;;;;;;;1.48;0.77;;;;;;;;;;4567793;27;20162;-56
2022/12/23 03:37:53;;;;;;;1.27;0.95;;;;;;;;;;4568442;27;20051;-56
2022/12/23 03:40:08;;;;;;;0.95;0.73;;;;;;;;;;4565917;27;20016;-56
2022/12/23 03:42:21;;;;;;;1.48;0.80;;;;;;;;;;4566178;27;20045;-56
2022/12/23 03:44:33;;;;;;;1.13;0.80;;;;;;;;;;4566436;27;20033;-56
2022/12/23 03:46:51;;;;;;;0.65;0.65;;;;;;;;;;4567639;27;20771;-56
2022/12/23 03:49:10;;;;;;;0.82;0.60;;;;;;;;;;4569858;27;20033;-56
2022/12/23 03:51:26;;;;;;;1.13;0.90;;;;;;;;;;4569108;27;20036;-57
2022/12/23 03:53:40;;;;;;;1.13;0.90;;;;;;;;;;4568208;27;20040;-56
2022/12/23 03:55:54;;;;;;;1.08;0.80;;;;;;;;;;4566233;27;20033;-56
2022/12/23 03:58:23;;;;;;;1.00;0.90;;;;;;;;;;4566075;27;20032;-56
2022/12/23 04:00:37;;;;;;;1.10;0.95;;;;;;;;;;4550164;27;20159;-56
2022/12/23 04:02:59;;;;;;;1.00;0.85;;;;;;;;;;4566902;27;20036;-56
2022/12/23 04:05:12;;;;;;;1.02;0.93;;;;;;;;;;4565357;27;20536;-57
2022/12/23 04:07:51;;;;;;;0.90;0.90;;;;;;;;;;4565674;27;20036;-56
2022/12/23 04:10:02;;;;;;;0.77;0.77;;;;;;;;;;4528570;28;20053;-56
2022/12/23 04:12:13;;;;;;;1.13;1.00;;;;;;;;;;4565871;27;20036;-56
2022/12/23 04:14:24;;;;;;;0.95;0.95;;;;;;;;;;4566262;27;20041;-56
2022/12/23 04:16:34;;;;;;;1.10;1.00;;;;;;;;;;4564380;27;20033;-55
2022/12/23 04:18:44;;;;;;;0.80;0.80;;;;;;;;;;4566860;27;20040;-56
2022/12/23 04:20:55;;;;;;;1.15;1.05;;;;;;;;;;4565916;27;20044;-56
2022/12/23 04:23:05;;;;;;;1.20;1.10;;;;;;;;;;4566612;27;20036;-56
2022/12/23 04:25:16;;;;;;;1.20;1.10;;;;;;;;;;4565166;27;20063;-56
2022/12/23 04:27:26;;;;;;;1.15;1.10;;;;;;;;;;4569906;27;20044;-56
2022/12/23 04:29:37;;;;;;;1.30;1.20;;;;;;;;;;4567332;27;20036;-56
2022/12/23 04:31:47;;;;;;;1.38;1.27;;;;;;;;;;4574066;27;20519;-56
2022/12/23 04:33:58;;;;;;;1.55;1.30;;;;;;;;;;4566777;27;20056;-56
2022/12/23 04:36:08;;;;;;;1.35;1.23;;;;;;;;;;4567752;27;20458;-56
2022/12/23 04:38:19;;;;;;;1.40;1.30;;;;;;;;;;4567455;27;20040;-56
2022/12/23 04:40:29;;;;;;;1.80;1.50;;;;;;;;;;4565242;27;20067;-56
2022/12/23 04:42:39;;;;;;;1.60;1.50;;;;;;;;;;4564505;27;20051;-56
2022/12/23 04:44:50;;;;;;;1.63;1.35;;;;;;;;;;4565332;27;20035;-56
2022/12/23 04:47:00;;;;;;;1.40;1.30;;;;;;;;;;4566355;27;20028;-56
2022/12/23 04:49:10;;;;;;;1.55;1.20;;;;;;;;;;4567217;27;20328;-56
2022/12/23 04:51:21;;;;;;;1.50;1.40;;;;;;;;;;4567851;27;20090;-56
2022/12/23 04:53:31;;;;;;;1.50;1.40;;;;;;;;;;4564712;27;20032;-56
2022/12/23 04:55:41;;;;;;;1.40;1.30;;;;;;;;;;4566783;27;20063;-56
2022/12/23 04:57:52;;;;;;;1.33;1.23;;;;;;;;;;4567814;27;20032;-56
2022/12/23 05:00:03;;;;;;;1.48;1.38;;;;;;;;;;4565471;27;20082;-56
2022/12/23 05:02:13;;;;;;;2.28;1.35;;;;;;;;;;4566658;27;20033;-56
2022/12/23 05:04:24;;;;;;;1.30;1.20;;;;;;;;;;4569727;27;20032;-56
2022/12/23 05:06:35;;;;;;;1.52;1.42;;;;;;;;;;4565613;27;20638;-56
2022/12/23 05:08:45;;;;;;;1.40;1.30;;;;;;;;;;4568379;27;20028;-56
2022/12/23 05:10:55;;;;;;;1.85;1.45;;;;;;;;;;4567859;27;20025;-56
2022/12/23 05:13:06;;;;;;;1.50;1.40;;;;;;;;;;4566451;27;20557;-55
2022/12/23 05:15:16;;;;;;;1.50;1.40;;;;;;;;;;4566432;27;20028;-56
2022/12/23 05:17:26;;;;;;;1.67;1.38;;;;;;;;;;4566313;27;20024;-56
2022/12/23 05:19:36;;;;;;;1.60;1.38;;;;;;;;;;4566653;27;20824;-56
2022/12/23 05:21:47;;;;;;;1.55;1.40;;;;;;;;;;4566987;27;20041;-56
2022/12/23 05:23:57;;;;;;;1.45;1.35;;;;;;;;;;4564697;27;20044;-56
2022/12/23 05:26:07;;;;;;;1.60;1.30;;;;;;;;;;4568815;27;20507;-56
2022/12/23 05:28:18;;;;;;;1.55;1.45;;;;;;;;;;4565622;27;20066;-56
2022/12/23 05:30:29;;;;;;;1.58;1.45;;;;;;;;;;4566015;27;20028;-58
2022/12/23 05:32:39;;;;;;;1.58;1.40;;;;;;;;;;4562679;27;20510;-56
2022/12/23 05:34:49;;;;;;;1.92;1.60;;;;;;;;;;4563772;27;20476;-56
2022/12/23 05:37:00;;;;;;;1.58;1.48;;;;;;;;;;4550008;28;20041;-56
2022/12/23 05:39:10;;;;;;;1.90;1.70;;;;;;;;;;4564940;27;20028;-56
2022/12/23 05:41:20;;;;;;;2.08;1.50;;;;;;;;;;4564789;27;20040;-56
2022/12/23 05:43:30;;;;;;;1.60;1.50;;;;;;;;;;4565371;27;20086;-56
2022/12/23 05:45:41;;;;;;;1.65;1.55;;;;;;;;;;4565274;27;20028;-56
2022/12/23 05:47:51;;;;;;;1.48;1.27;;;;;;;;;;4564352;27;20044;-56
2022/12/23 05:50:02;;;;;;;1.80;1.60;;;;;;;;;;4568486;27;20140;-56
2022/12/23 05:52:12;;;;;;;1.92;1.67;;;;;;;;;;4549874;28;20859;-56
2022/12/23 05:54:23;;;;;;;2.28;1.80;;;;;;;;;;4547345;27;20432;-56
2022/12/23 05:56:33;;;;;;;1.77;1.67;;;;;;;;;;4562603;27;20038;-56
2022/12/23 05:58:43;;;;;;;1.77;1.67;;;;;;;;;;4563932;27;20098;-57
2022/12/23 06:00:53;;;;;;;2.60;1.77;;;;;;;;;;4562535;27;20035;-56
2022/12/23 06:03:04;;;;;;;1.60;1.50;;;;;;;;;;4562134;27;20040;-56
2022/12/23 06:05:14;;;;;;;1.67;1.58;;;;;;;;;;4562636;27;20040;-56
2022/12/23 06:07:24;;;;;;;1.75;1.65;;;;;;;;;;4563957;27;20867;-56
2022/12/23 06:09:35;;;;;;;1.60;1.50;;;;;;;;;;4564809;27;20021;-55
2022/12/23 06:11:45;;;;;;;1.50;1.40;;;;;;;;;;4565257;27;20143;-56
2022/12/23 06:13:55;;;;;;;1.98;1.77;;;;;;;;;;4565577;27;20085;-56
2022/12/23 06:16:06;;;;;;;1.50;1.40;;;;;;;;;;4536916;27;20654;-56
2022/12/23 06:18:16;;;;;;;1.70;1.60;;;;;;;;;;4566047;27;20397;-56
2022/12/23 06:20:26;;;;;;;1.60;1.50;;;;;;;;;;4565192;27;20033;-56
2022/12/23 06:22:37;;;;;;;1.70;1.60;;;;;;;;;;4568284;27;20074;-56
2022/12/23 06:24:47;;;;;;;1.70;1.60;;;;;;;;;;4565468;27;20044;-56
2022/12/23 06:26:57;;;;;;;1.70;1.60;;;;;;;;;;4567345;27;20097;-56
2022/12/23 06:29:09;;;;;;;1.58;1.48;;;;;;;;;;4565186;27;20028;-56
2022/12/23 06:31:19;;;;;;;1.55;1.45;;;;;;;;;;4567292;27;20040;-55
2022/12/23 06:33:29;;;;;;;1.63;1.52;;;;;;;;;;4564049;27;20950;-56
2022/12/23 06:35:40;;;;;;;1.60;1.50;;;;;;;;;;4568338;27;20047;-56
2022/12/23 06:37:52;;;;;;;1.75;1.65;;;;;;;;;;4565043;27;20119;-56
2022/12/23 06:40:02;;;;;;;1.60;1.50;;;;;;;;;;4565060;27;20043;-56
2022/12/23 06:42:12;;;;;;;1.48;1.38;;;;;;;;;;4564753;27;20579;-55
2022/12/23 06:44:23;;;;;;;1.52;1.40;;;;;;;;;;4564242;27;20138;-56
2022/12/23 06:46:33;;;;;;;1.50;1.40;;;;;;;;;;4564568;27;20111;-56
2022/12/23 06:48:43;;;;;;;1.50;1.40;;;;;;;;;;4566909;27;20580;-56
2022/12/23 06:50:54;;;;;;;1.40;1.30;;;;;;;;;;4566804;27;20096;-56
2022/12/23 06:53:04;;;;;;;1.58;1.40;;;;;;;;;;4564421;27;20032;-56
2022/12/23 06:55:14;;;;;;;1.27;1.17;;;;;;;;;;4564470;27;20031;-56
2022/12/23 06:57:25;;;;;;;1.33;1.23;;;;;;;;;;4563204;27;20050;-56
2022/12/23 06:59:35;;;;;;;1.50;1.40;;;;;;;;;;4563640;27;20491;-55
2022/12/23 07:01:46;;;;;;;1.40;1.30;;;;;;;;;;4564000;27;20032;-56
2022/12/23 07:03:56;;;;;;;1.52;1.42;;;;;;;;;;4565480;27;20036;-56
2022/12/23 07:06:06;;;;;;;1.40;1.30;;;;;;;;;;4567414;27;20048;-56
2022/12/23 07:08:17;;;;;;;1.40;1.30;;;;;;;;;;4567387;27;20467;-56
2022/12/23 07:10:28;;;;;;;1.40;1.30;;;;;;;;;;4567176;27;20036;-56
2022/12/23 07:12:38;;;;;;;1.23;1.13;;;;;;;;;;4568100;27;20040;-56
2022/12/23 07:14:48;;;;;;;1.40;1.30;;;;;;;;;;4567639;27;20139;-56
2022/12/23 07:16:59;;;;;;;1.20;1.10;;;;;;;;;;4568819;27;20151;-56
2022/12/23 07:19:09;;;;;;;1.20;1.10;;;;;;;;;;4567906;27;20573;-55
2022/12/23 07:21:19;;;;;;;1.00;1.00;;;;;;;;;;4555707;27;20025;-56
2022/12/23 07:23:30;;;;;;;1.15;1.05;;;;;;;;;;4559122;28;20107;-56
2022/12/23 07:25:40;;;;;;;1.00;0.98;;;;;;;;;;4570640;27;20511;-55
2022/12/23 07:27:54;;;;;;;0.90;0.90;;;;;;;;;;4565817;27;20062;-56
2022/12/23 07:30:05;;;;;;;0.93;0.93;;;;;;;;;;4554594;27;20036;-56
2022/12/23 07:32:15;;;;;;;0.80;0.80;;;;;;;;;;4565842;27;20028;-56
2022/12/23 07:34:25;;;;;;;0.85;0.85;;;;;;;;;;4566570;27;20040;-56
2022/12/23 07:36:36;;;;;;;0.80;0.80;;;;;;;;;;4568660;27;20117;-56
2022/12/23 07:38:50;;;;;;;0.70;0.70;;;;;;;;;;4566819;27;20050;-56
2022/12/23 07:41:00;;;;;;;0.60;0.60;;;;;;;;;;4567029;27;20115;-56
2022/12/23 07:43:10;;;;;;;0.98;0.98;;;;;;;;;;4568878;27;20028;-57
2022/12/23 07:45:21;;;;;;;1.20;1.10;;;;;;;;;;4567155;27;20612;-57
2022/12/23 07:47:31;;;;;;;1.27;1.00;;;;;;;;;;4569904;27;20033;-56
2022/12/23 07:49:41;;;;;;;1.00;1.00;;;;;;;;;;4568621;27;20043;-56
2022/12/23 07:51:52;;;;;;;0.80;0.80;;;;;;;;;;4566405;27;20047;-54
2022/12/23 07:54:02;;;;;;;0.60;0.60;;;;;;;;;;4565674;27;20040;-56
2022/12/23 07:56:12;;;;;;;0.68;0.63;;;;;;;;;;4566556;27;20052;-56
2022/12/23 07:58:23;;;;;;;0.77;0.77;;;;;;;;;;4567210;27;20048;-56
2022/12/23 08:00:33;;;;;;;0.80;0.80;;;;;;;;;;4567568;27;20035;-56
2022/12/23 08:02:44;;;;;;;0.80;0.80;;;;;;;;;;4568811;27;20048;-56
2022/12/23 08:04:54;;;;;;;0.80;0.80;;;;;;;;;;4567301;27;20036;-56
2022/12/23 08:07:05;;;;;;;0.80;0.80;;;;;;;;;;4567567;27;20021;-56
2022/12/23 08:09:15;;;;;;;0.90;0.90;;;;;;;;;;4561526;27;20044;-56
2022/12/23 08:11:25;;;;;;;0.90;0.90;;;;;;;;;;4566528;27;20182;-55
2022/12/23 08:13:37;;;;;;;0.88;0.88;;;;;;;;;;4566816;27;20024;-55
2022/12/23 08:15:47;;;;;;;0.93;0.93;;;;;;;;;;4567695;27;20713;-56
2022/12/23 08:17:57;;;;;;;0.80;0.80;;;;;;;;;;4555462;27;20041;-57
2022/12/23 08:20:08;;;;;;;0.90;0.90;;;;;;;;;;4564396;27;20036;-56
2022/12/23 08:22:18;;;;;;;1.08;0.98;;;;;;;;;;4567312;27;20096;-57
2022/12/23 08:24:28;;;;;;;1.30;1.20;;;;;;;;;;4566300;27;20029;-57
2022/12/23 08:26:39;;;;;;;1.50;1.40;;;;;;;;;;4566055;27;20649;-57
2022/12/23 08:28:52;;;;;;;1.75;1.65;;;;;;;;;;4567837;27;20086;-57
2022/12/23 08:31:10;;;;;;;1.60;1.50;;;;;;;;;;4566065;27;20054;-56
2022/12/23 08:33:20;;;;;;;1.52;1.42;;;;;;;;;;4563458;27;20099;-64
2022/12/23 08:35:30;;;;;;;1.52;1.42;;;;;;;;;;4544507;27;20097;-57
2022/12/23 08:37:41;;;;;;;1.55;1.45;;;;;;;;;;4561282;27;20029;-57
2022/12/23 08:39:51;;;;;;;1.42;1.33;;;;;;;;;;4563965;27;20133;-56
2022/12/23 08:42:01;;;;;;;1.40;1.30;;;;;;;;;;4565925;27;20027;-57
2022/12/23 08:44:12;;;;;;;1.45;1.30;;;;;;;;;;4566922;27;20032;-55
2022/12/23 08:46:23;;;;;;;1.40;1.30;;;;;;;;;;4550181;27;20060;-57
2022/12/23 08:48:34;;;;;;;2.28;1.92;;;;;;;;;;4557125;27;20035;-56
2022/12/23 08:50:45;;;;;;;1.52;1.40;;;;;;;;;;4564783;27;20031;-57
2022/12/23 08:52:55;;;;;;;1.50;1.40;;;;;;;;;;4565291;27;20217;-57
2022/12/23 08:55:06;;;;;;;1.45;1.35;;;;;;;;;;4547497;27;20074;-57
2022/12/23 08:57:16;;;;;;;1.40;1.30;;;;;;;;;;4566267;27;20047;-57
2022/12/23 08:59:27;;;;;;;1.45;1.35;;;;;;;;;;4565446;27;20920;-56
2022/12/23 09:01:37;;;;;;;1.40;1.30;;;;;;;;;;4563337;27;20028;-56
2022/12/23 09:03:47;;;;;;;1.50;1.40;;;;;;;;;;4564122;27;20045;-57
2022/12/23 09:05:58;;;;;;;0.85;0.85;;;;;;;;;;4566618;27;20052;-56
2022/12/23 09:08:08;;;;;;;0.70;0.70;;;;;;;;;;4566022;27;20031;-57
2022/12/23 09:10:18;;;;;;;0.70;0.70;;;;;;;;;;4565184;27;20787;-56
2022/12/23 09:12:29;;;;;;;0.63;0.63;;;;;;;;;;4564412;27;20549;-57
2022/12/23 09:14:39;;;;;;;0.60;0.60;;;;;;;;;;4567114;27;20036;-56
2022/12/23 09:16:51;;;;;;;0.70;0.70;;;;;;;;;;4549686;27;20285;-56
2022/12/23 09:19:01;;;;;;;0.77;0.65;;;;;;;;;;4565179;27;20048;-57
2022/12/23 09:21:13;;;;;;;0.73;0.73;;;;;;;;;;4564473;27;20036;-56
2022/12/23 09:23:23;;;;;;;0.65;0.65;;;;;;;;;;4566180;27;20131;-56
2022/12/23 09:25:34;;;;;;;0.80;0.70;;;;;;;;;;4564253;27;20035;-56
2022/12/23 09:27:45;;;;;;;0.77;0.77;;;;;;;;;;4566371;27;20024;-56
2022/12/23 09:29:55;;;;;;;0.70;0.70;;;;;;;;;;4547244;27;20036;-56
2022/12/23 09:32:05;;;;;;;0.98;0.90;;;;;;;;;;4565785;27;20044;-56
2022/12/23 09:34:16;;;;;;;1.33;1.15;;;;;;;;;;4565601;27;20059;-56
2022/12/23 09:36:26;;;;;;;1.45;1.35;;;;;;;;;;4540391;27;20048;-56
2022/12/23 09:41:49;;;;;;;1.40;1.30;;;;;;;;;;4561309;27;20047;-56
2022/12/23 09:44:08;;;;;;;1.20;1.10;;;;;;;;;;4568810;27;20031;-56
2022/12/23 09:46:20;;;;;;;0.90;0.90;;;;;;;;;;4564861;27;20035;-56
2022/12/23 09:48:37;;;;;;;1.15;1.05;;;;;;;;;;4566344;27;20035;-56
2022/12/23 09:50:48;;;;;;;1.00;1.00;;;;;;;;;;4565008;27;20036;-56
2022/12/23 09:53:00;;;;;;;1.02;1.00;;;;;;;;;;4566262;27;20401;-56
2022/12/23 09:55:11;;;;;;;1.20;1.10;;;;;;;;;;4564402;27;20087;-57
2022/12/23 09:57:25;;;;;;;1.20;1.10;;;;;;;;;;4568053;27;20040;-56
2022/12/23 09:59:54;;;;;;;1.25;1.15;;;;;;;;;;4568457;27;20034;-56
2022/12/23 10:02:17;;;;;;;1.67;0.95;;;;;;;;;;4565634;27;20033;-56
2022/12/23 10:04:32;;;;;;;1.10;1.00;;;;;;;;;;4565398;27;20113;-56
2022/12/23 10:06:45;;;;;;;1.30;1.20;;;;;;;;;;4568008;27;20027;-56
2022/12/23 10:09:03;;;;;;;1.40;1.30;;;;;;;;;;4570041;27;20245;-56
2022/12/23 10:11:15;;;;;;;2.22;1.58;;;;;;;;;;4557539;27;20690;-57
2022/12/23 10:13:34;;;;;;;5.40;3.00;;;;;;;;;;4565134;27;20140;-56
2022/12/23 10:15:46;;;;;;;2.65;2.05;;;;;;;;;;4568746;27;20680;-56
2022/12/23 10:17:59;;;;;;;1.10;1.00;;;;;;;;;;4565915;27;20049;-56
2022/12/23 10:20:27;;;;;;;0.75;0.75;;;;;;;;;;4564938;27;20615;-56
2022/12/23 10:22:41;;;;;;;0.82;0.82;;;;;;;;;;4563891;27;21292;-56
2022/12/23 10:24:54;;;;;;;0.95;0.90;;;;;;;;;;4564641;27;20585;-56
2022/12/23 10:27:14;;;;;;;2.40;2.13;;;;;;;;;;4546288;27;20994;-56
2022/12/23 10:29:25;;;;;;;2.28;2.03;;;;;;;;;;4565589;27;20032;-56
2022/12/23 10:31:44;;;;;;;4.25;3.58;;;;;;;;;;4566381;27;20040;-57
2022/12/23 10:34:17;;;;;;;3.25;2.75;;;;;;;;;;4568336;27;20039;-56
2022/12/23 10:36:37;;;;;;;2.20;1.80;;;;;;;;;;4524218;27;20058;-56
2022/12/23 10:39:06;;;;;;;1.50;1.40;;;;;;;;;;4568453;27;20106;-56
2022/12/23 10:41:36;;;;;;;2.03;1.83;;;;;;;;;;4560704;27;20036;-56
2022/12/23 10:43:56;;;;;;;1.90;1.70;;;;;;;;;;4568744;27;20048;-56
2022/12/23 10:46:21;;;;;;;1.50;1.40;;;;;;;;;;4567343;27;20060;-56
2022/12/23 10:48:35;;;;;;;1.30;1.20;;;;;;;;;;4560283;27;20051;-56
2022/12/23 10:50:50;;;;;;;1.27;1.00;;;;;;;;;;4543625;27;20051;-56
2022/12/23 10:53:02;;;;;;;1.30;1.20;;;;;;;;;;4567015;27;20617;-56
2022/12/23 10:55:17;;;;;;;1.65;1.50;;;;;;;;;;4566977;27;20972;-56
2022/12/23 10:57:28;;;;;;;2.25;2.05;;;;;;;;;;4570208;27;20814;-56
2022/12/23 10:59:38;;;;;;;1.98;1.77;;;;;;;;;;4566742;27;20135;-56
2022/12/23 11:01:51;;;;;;;2.60;2.28;;;;;;;;;;4566060;27;20036;-56
2022/12/23 11:04:06;;;;;;;3.13;2.83;;;;;;;;;;4553423;28;20094;-56
2022/12/23 11:06:17;;;;;;;2.60;2.40;;;;;;;;;;4551259;27;20040;-57
2022/12/23 11:08:28;;;;;;;2.00;1.90;;;;;;;;;;4568262;27;20040;-57
2022/12/23 11:29:58;;;;;;;3.00;2.50;;;;;;;;;;4562595;27;20040;-56
2022/12/23 11:32:27;;;;;;;3.22;2.92;;;;;;;;;;4555382;27;20041;-56
2022/12/23 11:34:37;;;;;;;2.80;2.60;;;;;;;;;;4556640;28;20074;-56
2022/12/23 11:36:58;;;;;;;2.60;2.40;;;;;;;;;;4565124;27;20094;-57
2022/12/23 11:39:08;;;;;;;2.78;2.47;;;;;;;;;;4568008;27;20785;-57
2022/12/23 11:41:19;;;;;;;3.05;2.10;;;;;;;;;;4568797;27;20029;-57
2022/12/23 11:43:31;;;;;;;2.58;2.15;;;;;;;;;;4567908;27;20047;-57
2022/12/23 11:45:41;;;;;;;2.30;2.10;;;;;;;;;;4560589;27;20675;-56
2022/12/23 11:47:51;;;;;;;2.47;2.00;;;;;;;;;;4566799;27;20091;-55
2022/12/23 11:50:21;;;;;;;2.20;2.00;;;;;;;;;;4566338;27;20123;-56
2022/12/23 11:52:32;;;;;;;2.53;1.95;;;;;;;;;;4565939;27;20033;-56
2022/12/23 11:54:48;;;;;;;2.47;2.10;;;;;;;;;;4565888;27;20497;-55
2022/12/23 11:57:00;;;;;;;2.13;2.00;;;;;;;;;;4565480;27;21042;-56
2022/12/23 11:59:37;;;;;;;3.53;3.22;;;;;;;;;;4566430;27;20039;-58
2022/12/23 12:01:47;;;;;;;2.65;2.45;;;;;;;;;;4563610;27;20748;-56
2022/12/23 12:04:08;;;;;;;2.30;2.10;;;;;;;;;;4568058;27;20035;-56
2022/12/23 12:06:19;;;;;;;2.92;2.40;;;;;;;;;;4544225;27;20351;-56
2022/12/23 12:08:31;;;;;;;3.13;2.50;;;;;;;;;;4570291;27;20032;-56
2022/12/23 12:10:42;;;;;;;3.10;2.80;;;;;;;;;;4568457;27;20055;-56
2022/12/23 13:07:36;;;;;;;2.00;1.80;;;;;;;;;;4563523;27;20608;-57
2022/12/23 13:10:02;;;;;;;1.88;1.67;;;;;;;;;;4565492;27;20803;-57
2022/12/23 13:12:36;;;;;;;1.60;1.50;;;;;;;;;;4564741;27;20044;-57
2022/12/23 13:14:57;;;;;;;1.92;1.73;;;;;;;;;;4543329;27;20051;-57
2022/12/23 13:17:16;;;;;;;1.48;1.38;;;;;;;;;;4546680;27;20029;-57
2022/12/23 13:19:49;;;;;;;1.38;1.27;;;;;;;;;;4564680;27;20048;-57
2022/12/23 13:22:05;;;;;;;1.50;1.40;;;;;;;;;;4552570;27;20622;-57
2022/12/23 13:24:18;;;;;;;1.63;1.42;;;;;;;;;;4566225;27;20028;-57
2022/12/23 13:26:42;;;;;;;1.40;1.30;;;;;;;;;;4569996;27;20605;-57
2022/12/23 13:28:58;;;;;;;1.40;1.30;;;;;;;;;;4565977;27;20090;-57
2022/12/23 13:31:38;;;;;;;1.92;1.33;;;;;;;;;;4567061;27;20033;-57
2022/12/23 13:33:54;;;;;;;1.35;1.25;;;;;;;;;;4490690;27;20050;-57
2022/12/23 13:36:30;;;;;;;1.35;1.25;;;;;;;;;;4565433;27;20630;-58
2022/12/23 13:38:59;;;;;;;1.52;1.42;;;;;;;;;;4562928;27;20140;-57
2022/12/23 13:41:09;;;;;;;1.40;1.30;;;;;;;;;;4540705;27;20040;-58
2022/12/23 13:43:22;;;;;;;1.88;1.77;;;;;;;;;;4566744;27;20043;-58
2022/12/23 13:45:35;;;;;;;2.10;1.50;;;;;;;;;;4566963;27;21465;-58
2022/12/23 13:48:07;;;;;;;1.40;1.30;;;;;;;;;;4564866;27;20662;-57
2022/12/23 13:50:23;;;;;;;1.55;1.45;;;;;;;;;;4564931;27;20028;-58
2022/12/23 13:52:37;;;;;;;1.40;1.30;;;;;;;;;;4565703;27;20048;-58
2022/12/23 13:55:06;;;;;;;1.30;1.20;;;;;;;;;;4565894;27;20048;-58
2022/12/23 13:57:25;;;;;;;1.67;1.55;;;;;;;;;;4565378;27;20500;-58
2022/12/23 13:59:37;;;;;;;1.70;1.30;;;;;;;;;;4565001;27;20044;-59
2022/12/23 14:01:48;;;;;;;1.77;1.50;;;;;;;;;;4549693;27;20044;-60
2022/12/23 14:04:18;;;;;;;1.60;1.50;;;;;;;;;;4565301;27;20044;-61
2022/12/23 14:06:31;;;;;;;2.13;1.92;;;;;;;;;;4562388;27;20125;-59
2022/12/23 14:08:42;;;;;;;1.90;1.70;;;;;;;;;;4562203;27;20623;-58
2022/12/23 14:10:57;;;;;;;1.92;1.77;;;;;;;;;;4561199;27;20040;-58
2022/12/23 14:13:07;;;;;;;1.95;1.60;;;;;;;;;;4561003;27;20075;-58
2022/12/23 14:15:18;;;;;;;1.50;1.30;;;;;;;;;;4549687;27;20148;-58
2022/12/23 14:17:34;;;;;;;1.40;1.30;;;;;;;;;;4553798;27;20040;-58
2022/12/23 14:19:44;;;;;;;1.60;1.50;;;;;;;;;;4553535;28;20048;-58
2022/12/23 14:21:58;;;;;;;2.03;1.83;;;;;;;;;;4563682;27;20976;-57
2022/12/23 14:24:27;;;;;;;2.38;2.17;;;;;;;;;;4564362;27;20071;-57
2022/12/23 14:26:46;;;;;;;2.53;2.20;;;;;;;;;;4544464;28;20028;-58
2022/12/23 14:28:56;;;;;;;2.28;2.08;;;;;;;;;;4566504;27;20143;-57
2022/12/23 14:31:26;;;;;;;2.30;2.08;;;;;;;;;;4564570;27;21080;-57
2022/12/23 14:33:36;;;;;;;2.38;2.13;;;;;;;;;;4561399;27;20043;-57
2022/12/23 14:35:47;;;;;;;2.42;2.22;;;;;;;;;;4544551;27;20048;-57
2022/12/23 14:38:09;;;;;;;2.40;2.20;;;;;;;;;;4564215;27;20035;-58
2022/12/23 14:40:51;;;;;;;2.60;2.33;;;;;;;;;;4562849;27;20040;-58
2022/12/23 14:43:20;;;;;;;2.50;2.30;;;;;;;;;;4488992;27;20052;-58
2022/12/23 14:45:34;;;;;;;2.60;2.35;;;;;;;;;;4561376;27;20965;-58
2022/12/23 14:47:45;;;;;;;2.83;2.40;;;;;;;;;;4547154;27;20638;-66
2022/12/23 14:49:55;;;;;;;3.08;2.78;;;;;;;;;;4563571;27;21014;-59
2022/12/23 14:52:25;;;;;;;3.70;3.10;;;;;;;;;;4554194;27;20028;-59
2022/12/23 14:54:36;;;;;;;3.78;3.20;;;;;;;;;;4564599;27;20039;-59
2022/12/23 14:56:58;;;;;;;2.83;2.45;;;;;;;;;;4557039;27;20040;-59
2022/12/23 14:59:11;;;;;;;2.55;2.35;;;;;;;;;;4548882;27;20056;-57
2022/12/23 15:01:30;;;;;;;3.03;2.83;;;;;;;;;;4562982;27;20037;-58
2022/12/23 15:03:50;;;;;;;2.63;2.42;;;;;;;;;;4564076;27;20432;-58
2022/12/23 15:06:03;;;;;;;3.00;2.80;;;;;;;;;;4566164;27;20649;-56
2022/12/23 15:08:24;;;;;;;2.95;2.65;;;;;;;;;;4562836;27;20032;-57